Ash Hill, North Carolina
Current Conditions -  °F | °C
As of 1:15 AM on Monday 22 Dec 2014 (Local Time) from KMWK Reporting Station
Overcast Overcast  
Wind Chill: 37°   Ceiling: 3300
Heat Index: 41°   Visibility: 10mi
Dew Point: 33°   Wind: 7mph
Humidity: 73%   Direction: 70°ENE
Pressure: 30.21"   Gusts: NA
Location:  36.3687°N, 80.588°W
Report Text: KMWK 220615Z AUTO 07006KT 10SM SCT025 OVC033 05/01 A3021 RMK AO2 T00510006
Loading
Personal Weather Stations






























Interactive Weather Map New forecast layout! Learn more

10-Day Weather Forecast

Advertisements
Track Severe Weather on mobile